createdAt,value
2022-11-15T00:00:24.808Z,57.92
2022-11-15T00:03:11.907Z,57.95
2022-11-15T00:06:04.044Z,56.53
2022-11-15T00:08:50.592Z,50.22
2022-11-15T00:11:37.252Z,60.20
2022-11-15T00:14:24.147Z,61.05
2022-11-15T00:17:12.288Z,68.78
2022-11-15T00:19:59.055Z,73.38
2022-11-15T00:22:46.459Z,71.93
2022-11-15T00:25:33.332Z,67.13
2022-11-15T00:28:19.949Z,67.53
2022-11-15T00:31:08.230Z,71.00
2022-11-15T00:33:55.982Z,72.82
2022-11-15T00:36:42.738Z,84.45
2022-11-15T00:39:29.550Z,75.70
2022-11-15T00:42:16.295Z,63.85
2022-11-15T00:45:03.088Z,64.93
2022-11-15T00:47:50.247Z,61.60
2022-11-15T00:50:38.197Z,58.83
2022-11-15T00:53:24.875Z,54.65
2022-11-15T00:56:11.565Z,51.90
2022-11-15T00:58:58.402Z,49.70
2022-11-15T01:01:45.311Z,47.95
2022-11-15T01:04:32.036Z,48.88
2022-11-15T01:07:20.032Z,49.20
2022-11-15T01:13:12.813Z,43.40
2022-11-15T01:15:59.531Z,44.05
2022-11-15T01:18:46.599Z,43.97
2022-11-15T01:21:37.073Z,45.05
2022-11-15T01:24:25.423Z,44.85
2022-11-15T01:27:11.977Z,44.00
2022-11-15T01:29:58.723Z,48.05
2022-11-15T01:32:45.459Z,49.78
2022-11-15T01:35:32.031Z,68.25
2022-11-15T01:38:18.925Z,71.55
2022-11-15T01:41:07.189Z,53.97
2022-11-15T01:43:58.356Z,52.80
2022-11-15T01:46:49.840Z,47.00
2022-11-15T01:49:39.929Z,50.22
2022-11-15T01:52:30.463Z,48.30
2022-11-15T01:55:20.836Z,44.92
2022-11-15T01:58:09.418Z,42.40
2022-11-15T02:00:56.311Z,38.30
2022-11-15T02:06:58.817Z,37.67
2022-11-15T02:09:46.933Z,39.05
2022-11-15T02:12:33.552Z,36.55
2022-11-15T02:15:21.748Z,37.53
2022-11-15T02:18:17.818Z,34.25
2022-11-15T02:21:13.575Z,35.35
2022-11-15T02:24:23.248Z,33.95
2022-11-15T02:27:44.289Z,35.45
2022-11-15T02:30:43.251Z,31.85
2022-11-15T02:33:39.192Z,32.55
2022-11-15T02:36:35.997Z,34.40
2022-11-15T02:39:29.204Z,30.60
2022-11-15T02:42:37.465Z,33.08
2022-11-15T02:45:29.194Z,33.42
2022-11-15T02:48:18.343Z,35.72
2022-11-15T02:51:05.495Z,35.05
2022-11-15T02:53:51.958Z,34.33
2022-11-15T02:56:38.772Z,39.30
2022-11-15T02:59:49.019Z,41.17
2022-11-15T03:02:52.324Z,43.13
2022-11-15T03:05:46.555Z,40.80
2022-11-15T03:08:40.024Z,42.63
2022-11-15T03:11:26.796Z,42.20
2022-11-15T03:14:23.670Z,40.95
2022-11-15T03:17:20.315Z,39.63
2022-11-15T03:20:09.735Z,40.53
2022-11-15T03:23:02.542Z,42.67
2022-11-15T03:25:52.804Z,38.22
2022-11-15T03:28:43.457Z,41.40
2022-11-15T03:31:51.516Z,42.97
2022-11-15T03:34:43.709Z,43.38
2022-11-15T03:37:36.137Z,43.17
2022-11-15T03:40:30.362Z,45.03
2022-11-15T03:43:26.952Z,44.33
2022-11-15T03:46:17.193Z,45.42
2022-11-15T03:49:09.628Z,43.00
2022-11-15T03:51:59.408Z,42.47
2022-11-15T03:54:51.650Z,41.92
2022-11-15T03:57:40.215Z,39.70
2022-11-15T04:00:26.781Z,40.38
2022-11-15T04:03:13.474Z,38.65
2022-11-15T04:06:00.197Z,40.05
2022-11-15T04:08:47.189Z,37.30
2022-11-15T04:11:33.652Z,38.17
2022-11-15T04:14:21.846Z,35.80
2022-11-15T04:17:08.672Z,39.20
2022-11-15T04:20:13.143Z,36.63
2022-11-15T04:23:19.078Z,36.60
2022-11-15T04:26:08.323Z,32.85
2022-11-15T04:29:12.501Z,35.13
2022-11-15T04:32:00.644Z,31.13
2022-11-15T04:34:47.365Z,30.48
2022-11-15T04:37:34.100Z,34.35
2022-11-15T04:40:21.023Z,31.58
2022-11-15T04:43:07.753Z,35.00
2022-11-15T04:45:54.748Z,36.05
2022-11-15T04:48:42.736Z,34.97
2022-11-15T04:51:29.320Z,33.55
2022-11-15T04:54:16.180Z,36.92
2022-11-15T04:57:02.940Z,35.35
2022-11-15T04:59:50.076Z,33.28
2022-11-15T05:02:53.811Z,33.70
2022-11-15T05:05:41.976Z,36.35
2022-11-15T05:08:28.386Z,36.47
2022-11-15T05:11:15.425Z,38.38
2022-11-15T05:14:01.858Z,39.88
2022-11-15T05:16:48.675Z,38.92
2022-11-15T05:19:38.049Z,40.63
2022-11-15T05:22:26.007Z,40.80
2022-11-15T05:25:12.419Z,40.40
2022-11-15T05:27:59.212Z,40.63
2022-11-15T05:30:45.876Z,45.03
2022-11-15T05:33:33.549Z,46.72
2022-11-15T05:36:27.077Z,47.35
2022-11-15T05:39:15.279Z,44.08
2022-11-15T05:42:06.524Z,43.83
2022-11-15T05:44:53.232Z,46.08
2022-11-15T05:47:41.149Z,42.38
2022-11-15T05:50:28.190Z,45.38
2022-11-15T05:53:18.378Z,44.78
2022-11-15T05:56:07.820Z,43.50
2022-11-15T05:58:59.420Z,43.90
2022-11-15T06:01:46.814Z,42.10
2022-11-15T06:04:33.696Z,48.15
2022-11-15T06:07:20.459Z,44.95
2022-11-15T06:10:08.271Z,44.95
2022-11-15T06:13:00.223Z,48.67
2022-11-15T06:15:46.823Z,45.65
2022-11-15T06:18:35.514Z,47.53
2022-11-15T06:21:21.995Z,46.83
2022-11-15T06:24:08.776Z,45.70
2022-11-15T06:26:55.735Z,46.38
2022-11-15T06:29:43.888Z,50.05
2022-11-15T06:32:31.567Z,49.35
2022-11-15T06:35:18.709Z,46.85
2022-11-15T06:38:06.964Z,50.22
2022-11-15T06:40:53.565Z,51.03
2022-11-15T06:43:41.196Z,49.15
2022-11-15T06:46:29.007Z,48.97
2022-11-15T06:49:15.859Z,48.97
2022-11-15T06:52:02.694Z,50.53
2022-11-15T06:54:49.607Z,50.50
2022-11-15T06:57:36.474Z,49.92
2022-11-15T07:00:24.230Z,51.33
2022-11-15T07:03:12.764Z,51.03
2022-11-15T07:06:05.674Z,48.15
2022-11-15T07:08:53.982Z,46.88
2022-11-15T07:11:40.747Z,48.40
2022-11-15T07:14:27.603Z,45.88
2022-11-15T07:17:14.302Z,47.95
2022-11-15T07:20:02.299Z,43.47
2022-11-15T07:22:48.762Z,37.50
2022-11-15T07:25:35.487Z,36.45
2022-11-15T07:28:22.723Z,38.85
2022-11-15T07:31:10.751Z,34.13
2022-11-15T07:33:57.468Z,32.08
2022-11-15T07:36:45.422Z,31.95
2022-11-15T07:39:32.229Z,31.70
2022-11-15T07:42:36.205Z,33.90
2022-11-15T07:45:23.360Z,31.35
2022-11-15T07:48:10.124Z,32.17
2022-11-15T07:50:56.808Z,33.33
2022-11-15T07:53:45.263Z,34.67
2022-11-15T07:56:31.995Z,35.22
2022-11-15T07:59:18.595Z,35.63
2022-11-15T08:02:05.322Z,35.30
2022-11-15T08:04:52.097Z,33.17
2022-11-15T08:07:39.787Z,33.75
2022-11-15T08:10:28.451Z,33.15
2022-11-15T08:13:15.444Z,33.85
2022-11-15T08:16:02.506Z,34.15
2022-11-15T08:18:49.686Z,34.13
2022-11-15T08:21:36.699Z,36.55
2022-11-15T08:24:23.455Z,37.03
2022-11-15T08:27:15.942Z,36.30
2022-11-15T08:30:03.687Z,35.08
2022-11-15T08:32:50.507Z,36.30
2022-11-15T08:35:37.362Z,34.88
2022-11-15T08:38:23.983Z,35.72
2022-11-15T08:41:15.843Z,38.38
2022-11-15T08:44:04.197Z,37.63
2022-11-15T08:46:50.744Z,36.75
2022-11-15T08:49:37.407Z,33.53
2022-11-15T08:52:24.296Z,37.20
2022-11-15T08:55:10.959Z,37.35
2022-11-15T08:57:59.340Z,35.50
2022-11-15T09:00:47.221Z,36.00
2022-11-15T09:03:34.170Z,34.17
2022-11-15T09:06:20.980Z,36.03
2022-11-15T09:09:07.779Z,33.20
2022-11-15T09:11:58.130Z,35.17
2022-11-15T09:14:48.083Z,34.80
2022-11-15T09:17:36.312Z,34.58
2022-11-15T09:20:23.074Z,34.33
2022-11-15T09:23:09.834Z,34.20
2022-11-15T09:26:01.164Z,35.47
2022-11-15T09:28:47.822Z,34.78
2022-11-15T09:31:34.309Z,36.95
2022-11-15T09:34:22.896Z,38.08
2022-11-15T09:37:09.599Z,36.65
2022-11-15T09:39:56.392Z,34.65
2022-11-15T09:43:04.218Z,36.17
2022-11-15T09:46:02.003Z,35.00
2022-11-15T09:49:06.431Z,35.95
2022-11-15T09:51:50.997Z,37.55
2022-11-15T09:54:52.133Z,36.67
2022-11-15T09:57:19.624Z,37.72
2022-11-15T10:00:04.077Z,35.00
2022-11-15T10:03:04.811Z,35.80
2022-11-15T10:05:38.413Z,36.92
2022-11-15T10:08:22.895Z,36.72
2022-11-15T10:11:22.625Z,35.88
2022-11-15T10:13:48.699Z,36.72
2022-11-15T10:16:38.444Z,37.03
2022-11-15T10:19:14.352Z,36.30
2022-11-15T10:21:54.558Z,38.20
2022-11-15T10:24:29.628Z,36.78
2022-11-15T10:26:58.388Z,35.50
2022-11-15T10:29:27.530Z,36.55
2022-11-15T10:31:55.928Z,37.15
2022-11-15T10:34:26.043Z,38.30
2022-11-15T10:36:58.444Z,36.75
2022-11-15T10:39:28.385Z,37.55
2022-11-15T10:41:57.008Z,39.45
2022-11-15T10:44:30.979Z,39.05
2022-11-15T10:47:38.915Z,37.95
2022-11-15T10:50:26.990Z,37.85
2022-11-15T10:52:55.900Z,40.13
2022-11-15T10:55:30.620Z,39.50
2022-11-15T10:58:05.157Z,39.67
2022-11-15T11:00:36.828Z,40.08
2022-11-15T11:03:08.085Z,42.07
2022-11-15T11:05:42.332Z,41.10
2022-11-15T11:08:24.939Z,40.63
2022-11-15T11:11:02.486Z,41.30
2022-11-15T11:13:32.804Z,41.23
2022-11-15T11:16:24.262Z,37.97
2022-11-15T11:19:04.282Z,43.33
2022-11-15T11:21:43.718Z,41.00
2022-11-15T11:24:21.001Z,40.97
2022-11-15T11:27:06.278Z,40.43
2022-11-15T11:29:48.259Z,39.77
2022-11-15T11:32:31.464Z,38.60
2022-11-15T11:35:10.693Z,40.17
2022-11-15T11:37:47.817Z,44.37
2022-11-15T11:40:31.285Z,41.30
2022-11-15T11:43:10.924Z,44.07
2022-11-15T11:45:59.791Z,41.60
2022-11-15T11:48:42.435Z,43.87
2022-11-15T11:51:18.694Z,42.30
2022-11-15T11:53:54.691Z,41.07
2022-11-15T11:56:28.720Z,42.47
2022-11-15T11:59:02.838Z,41.90
2022-11-15T12:01:36.707Z,40.43
2022-11-15T12:04:13.778Z,41.07
2022-11-15T12:06:47.672Z,42.17
2022-11-15T12:09:21.943Z,40.60
2022-11-15T12:11:57.126Z,39.50
2022-11-15T12:14:36.246Z,40.33
2022-11-15T12:17:04.395Z,41.57
2022-11-15T12:19:33.080Z,40.80
2022-11-15T12:22:08.946Z,41.70
2022-11-15T12:24:41.181Z,42.97
2022-11-15T12:27:21.922Z,39.37
2022-11-15T12:29:59.808Z,40.67
2022-11-15T12:32:31.569Z,41.90
2022-11-15T12:35:01.326Z,41.40
2022-11-15T12:37:52.154Z,42.17
2022-11-15T12:40:36.953Z,41.53
2022-11-15T12:43:37.821Z,42.90
2022-11-15T12:46:12.721Z,42.70
2022-11-15T12:48:59.747Z,42.50
2022-11-15T12:52:08.013Z,40.83
2022-11-15T12:55:30.031Z,40.60
2022-11-15T12:58:30.305Z,44.20
2022-11-15T13:00:58.828Z,42.67
2022-11-15T13:03:30.683Z,42.30
2022-11-15T13:06:32.334Z,42.60
2022-11-15T13:09:00.504Z,43.00
2022-11-15T13:11:50.242Z,41.27
2022-11-15T13:14:47.717Z,41.83
2022-11-15T13:17:26.535Z,40.50
2022-11-15T13:20:04.697Z,39.80
2022-11-15T13:22:55.572Z,37.77
2022-11-15T13:25:43.412Z,39.53
2022-11-15T13:28:20.129Z,38.97
2022-11-15T13:30:52.309Z,36.07
2022-11-15T13:33:22.978Z,38.27
2022-11-15T13:35:54.825Z,36.83
2022-11-15T13:38:30.157Z,39.47
2022-11-15T13:40:59.827Z,37.80
2022-11-15T13:43:37.119Z,38.47
2022-11-15T13:46:12.568Z,38.77
2022-11-15T13:48:41.526Z,37.40
2022-11-15T13:51:17.395Z,41.10
2022-11-15T13:53:51.076Z,41.43
2022-11-15T13:56:22.331Z,40.40
2022-11-15T13:58:50.861Z,38.17
2022-11-15T14:01:22.163Z,37.57
2022-11-15T14:03:54.402Z,39.73
2022-11-15T14:06:26.698Z,39.23
2022-11-15T14:09:05.143Z,41.47
2022-11-15T14:11:33.458Z,38.90
2022-11-15T14:14:16.366Z,39.83
2022-11-15T14:16:46.274Z,38.70
2022-11-15T14:19:34.833Z,37.97
2022-11-15T14:22:21.460Z,42.20
2022-11-15T14:25:07.099Z,37.97
2022-11-15T14:27:35.911Z,38.47
2022-11-15T14:30:05.057Z,40.42
2022-11-15T14:32:45.263Z,38.65
2022-11-15T14:35:17.506Z,37.42
2022-11-15T14:37:47.772Z,36.63
2022-11-15T14:40:19.348Z,35.47
2022-11-15T14:42:49.811Z,34.65
2022-11-15T14:45:19.402Z,35.63
2022-11-15T14:47:48.001Z,35.08
2022-11-15T14:50:18.967Z,35.30
2022-11-15T14:52:48.755Z,34.80
2022-11-15T14:55:22.559Z,36.42
2022-11-15T14:57:50.806Z,34.22
2022-11-15T15:00:19.564Z,32.45
2022-11-15T15:02:49.544Z,34.38
2022-11-15T15:05:20.162Z,36.20
2022-11-15T15:07:50.248Z,33.97
2022-11-15T15:13:08.460Z,32.20
2022-11-15T15:15:38.947Z,34.95
2022-11-15T15:18:09.535Z,35.55
2022-11-15T15:20:40.247Z,35.53
2022-11-15T15:23:17.796Z,38.45
2022-11-15T15:25:47.200Z,36.47
2022-11-15T15:28:15.475Z,37.50
2022-11-15T15:30:43.696Z,40.53
2022-11-15T15:33:11.857Z,40.05
2022-11-15T15:35:40.075Z,41.83
2022-11-15T15:38:08.184Z,44.17
2022-11-15T15:40:37.816Z,41.58
2022-11-15T15:43:06.059Z,39.38
2022-11-15T15:45:34.992Z,37.75
2022-11-15T15:48:03.157Z,39.90
2022-11-15T15:50:35.736Z,40.80
2022-11-15T15:53:06.454Z,39.10
2022-11-15T15:55:35.809Z,40.05
2022-11-15T15:58:05.852Z,39.70
2022-11-15T16:00:34.702Z,39.70
2022-11-15T16:03:03.012Z,39.83
2022-11-15T16:05:31.290Z,40.67
2022-11-15T16:07:59.546Z,44.17
2022-11-15T16:10:29.554Z,42.08
2022-11-15T16:12:59.304Z,41.97
2022-11-15T16:15:32.129Z,44.40
2022-11-15T16:18:02.024Z,42.45
2022-11-15T16:20:36.514Z,41.80
2022-11-15T16:23:09.160Z,44.17
2022-11-15T16:25:42.644Z,44.03
2022-11-15T16:28:22.356Z,41.00
2022-11-15T16:31:02.603Z,41.15
2022-11-15T16:33:31.228Z,40.30
2022-11-15T16:35:59.688Z,43.88
2022-11-15T16:38:28.202Z,47.92
2022-11-15T16:40:56.323Z,77.00
2022-11-15T16:43:25.469Z,65.45
2022-11-15T16:45:56.300Z,59.83
2022-11-15T16:48:26.205Z,50.78
2022-11-15T16:50:57.494Z,45.15
2022-11-15T16:53:25.903Z,49.47
2022-11-15T16:55:54.232Z,48.45
2022-11-15T16:58:22.458Z,48.00
2022-11-15T17:00:54.539Z,53.45
2022-11-15T17:03:24.004Z,50.25
2022-11-15T17:05:52.634Z,50.50
2022-11-15T17:08:24.219Z,53.10
2022-11-15T17:10:52.588Z,54.33
2022-11-15T17:13:20.924Z,55.35
2022-11-15T17:15:49.147Z,49.08
2022-11-15T17:18:19.495Z,46.33
2022-11-15T17:20:47.675Z,48.00
2022-11-15T17:23:15.883Z,51.22
2022-11-15T17:25:44.043Z,49.15
2022-11-15T17:28:12.272Z,50.20
2022-11-15T17:30:44.512Z,62.78
2022-11-15T17:33:12.634Z,60.05
2022-11-15T17:35:42.106Z,58.45
2022-11-15T17:38:10.308Z,51.40
2022-11-15T17:40:38.425Z,55.70
2022-11-15T17:43:07.106Z,52.33
2022-11-15T17:45:35.356Z,57.05
2022-11-15T17:48:03.790Z,58.15
2022-11-15T17:50:31.912Z,55.75
2022-11-15T17:53:01.655Z,59.53
2022-11-15T17:55:29.754Z,57.10
2022-11-15T17:57:57.893Z,58.50
2022-11-15T18:00:26.165Z,57.85
2022-11-15T18:02:54.394Z,57.72
2022-11-15T18:05:22.502Z,56.88
2022-11-15T18:07:50.637Z,58.65
2022-11-15T18:10:20.230Z,56.97
2022-11-15T18:12:48.392Z,58.03
2022-11-15T18:15:17.289Z,56.50
2022-11-15T18:17:45.490Z,58.88
2022-11-15T18:20:14.031Z,54.88
2022-11-15T18:22:42.190Z,57.72
2022-11-15T18:25:10.657Z,62.22
2022-11-15T18:27:40.228Z,60.95
2022-11-15T18:30:09.862Z,67.07
2022-11-15T18:32:37.990Z,71.00
2022-11-15T18:35:07.543Z,68.22
2022-11-15T18:37:35.675Z,65.00
2022-11-15T18:40:03.944Z,68.55
2022-11-15T18:42:33.065Z,65.95
2022-11-15T18:45:02.911Z,66.45
2022-11-15T18:47:31.703Z,65.38
2022-11-15T18:49:59.827Z,66.25
2022-11-15T18:52:28.334Z,65.40
2022-11-15T18:54:56.535Z,65.00
2022-11-15T18:57:24.666Z,64.68
2022-11-15T18:59:52.831Z,65.78
2022-11-15T19:02:22.431Z,64.25
2022-11-15T19:04:50.619Z,67.43
2022-11-15T19:07:18.814Z,68.00
2022-11-15T19:09:47.561Z,68.93
2022-11-15T19:12:15.716Z,64.50
2022-11-15T19:14:43.895Z,65.32
2022-11-15T19:17:11.962Z,62.17
2022-11-15T19:19:41.437Z,66.57
2022-11-15T19:22:09.544Z,71.35
2022-11-15T19:24:37.646Z,69.97
2022-11-15T19:27:05.871Z,67.93
2022-11-15T19:29:34.008Z,68.28
2022-11-15T19:32:03.471Z,63.53
2022-11-15T19:34:31.713Z,69.82
2022-11-15T19:37:01.293Z,66.93
2022-11-15T19:39:29.426Z,68.72
2022-11-15T19:41:57.683Z,70.88
2022-11-15T19:44:27.388Z,71.05
2022-11-15T19:46:55.506Z,68.90
2022-11-15T19:49:23.589Z,68.47
2022-11-15T19:51:51.770Z,73.30
2022-11-15T19:54:21.333Z,73.05
2022-11-15T19:56:49.411Z,68.22
2022-11-15T19:59:17.523Z,70.43
2022-11-15T20:01:45.695Z,71.25
2022-11-15T20:04:13.835Z,69.38
2022-11-15T20:06:43.689Z,67.70
2022-11-15T20:09:16.651Z,66.70
2022-11-15T20:11:46.220Z,67.00
2022-11-15T20:14:14.599Z,69.57
2022-11-15T20:16:43.013Z,69.65
2022-11-15T20:19:12.549Z,67.75
2022-11-15T20:21:40.986Z,76.13
2022-11-15T20:24:10.028Z,84.90
2022-11-15T20:26:38.880Z,102.00
2022-11-15T20:29:09.989Z,115.63
2022-11-15T20:31:38.206Z,125.82
2022-11-15T20:34:06.517Z,123.25
2022-11-15T20:36:34.706Z,122.53
2022-11-15T20:39:02.942Z,121.15
2022-11-15T20:41:31.074Z,125.10
2022-11-15T20:43:59.889Z,114.60
2022-11-15T20:46:29.450Z,113.70
2022-11-15T20:48:57.631Z,119.47
2022-11-15T20:51:25.783Z,142.45
2022-11-15T20:53:53.937Z,164.32
2022-11-15T20:56:23.612Z,144.90
2022-11-15T20:58:53.391Z,155.40
2022-11-15T21:01:24.403Z,142.85
2022-11-15T21:03:54.961Z,137.23
2022-11-15T21:06:24.405Z,116.57
2022-11-15T21:09:11.839Z,114.80
2022-11-15T21:11:57.387Z,109.32
2022-11-15T21:14:25.525Z,106.00
2022-11-15T21:16:53.745Z,105.63
2022-11-15T21:19:30.133Z,105.53
2022-11-15T21:22:01.436Z,109.03
2022-11-15T21:24:30.008Z,107.40
2022-11-15T21:26:58.612Z,109.55
2022-11-15T21:29:26.765Z,105.13
2022-11-15T21:31:54.914Z,105.07
2022-11-15T21:34:24.427Z,103.18
2022-11-15T21:36:52.685Z,106.60
2022-11-15T21:39:20.804Z,108.65
2022-11-15T21:41:49.912Z,106.40
2022-11-15T21:44:18.060Z,104.95
2022-11-15T21:46:46.209Z,109.20
2022-11-15T21:49:14.443Z,104.07
2022-11-15T21:51:44.175Z,97.10
2022-11-15T21:54:12.311Z,104.18
2022-11-15T21:56:41.753Z,102.53
2022-11-15T21:59:10.272Z,98.55
2022-11-15T22:01:55.944Z,101.82
2022-11-15T22:04:24.204Z,101.97
2022-11-15T22:06:53.807Z,103.70
2022-11-15T22:09:21.998Z,102.03
2022-11-15T22:11:50.152Z,101.65
2022-11-15T22:14:18.479Z,102.55
2022-11-15T22:16:46.612Z,102.97
2022-11-15T22:19:14.749Z,100.88
2022-11-15T22:21:43.405Z,102.00
2022-11-15T22:24:12.884Z,99.07
2022-11-15T22:26:41.011Z,95.82
2022-11-15T22:29:09.105Z,90.90
2022-11-15T22:31:37.271Z,90.32
2022-11-15T22:34:05.363Z,96.93
2022-11-15T22:36:52.122Z,98.63
2022-11-15T22:39:22.031Z,103.93
2022-11-15T22:41:50.132Z,98.57
2022-11-15T22:44:18.288Z,100.22
2022-11-15T22:46:46.420Z,101.32
2022-11-15T22:49:14.546Z,103.43
2022-11-15T22:51:42.724Z,98.15
2022-11-15T22:54:10.907Z,97.15
2022-11-15T22:56:40.407Z,95.43
2022-11-15T22:59:08.532Z,93.25
2022-11-15T23:01:36.836Z,97.18
2022-11-15T23:04:05.118Z,99.95
2022-11-15T23:06:33.318Z,95.85
2022-11-15T23:09:01.461Z,98.80
2022-11-15T23:11:47.108Z,97.10
2022-11-15T23:14:16.554Z,94.20
2022-11-15T23:16:45.077Z,91.63
2022-11-15T23:19:13.882Z,85.43
2022-11-15T23:22:03.615Z,88.03
2022-11-15T23:24:32.819Z,86.95
2022-11-15T23:27:03.216Z,87.68
2022-11-15T23:29:32.804Z,84.45
2022-11-15T23:32:18.031Z,92.28
2022-11-15T23:34:47.334Z,93.30
2022-11-15T23:37:16.680Z,93.03
2022-11-15T23:39:44.844Z,97.90
2022-11-15T23:42:19.729Z,96.07
2022-11-15T23:44:51.027Z,97.88
2022-11-15T23:47:19.639Z,98.03
2022-11-15T23:49:47.832Z,98.85
2022-11-15T23:52:16.659Z,100.35
2022-11-15T23:54:44.862Z,105.35
2022-11-15T23:57:13.414Z,110.50
2022-11-15T23:59:43.454Z,112.00
